Time;durP1;ratioP1;P1;durP2;ratioP2;P2;SDS_P1;SDS_P2;PMS_P1;PMS_P2;Temp;Humidity;BMP_temperature;BMP_pressure;BME280_temperature;BME280_humidity;BME280_pressure;Samples;Min_cycle;Max_cycle;Signal;HPM_P1;HPM_P2
2022/03/10 00:01:53;;;;;;;17.27;10.65;;;;;;;4.27;50.13;102146.09;5097931;28;20038;-91
2022/03/10 00:04:36;;;;;;;17.38;11.48;;;;;;;4.29;50.46;102137.88;5098454;28;20518;-90
2022/03/10 00:07:14;;;;;;;17.20;10.82;;;;;;;4.24;50.26;102148.19;5114285;28;20379;-91
2022/03/10 00:09:40;;;;;;;17.70;11.02;;;;;;;4.30;50.07;102166.47;5113932;28;20120;-90
2022/03/10 00:12:09;;;;;;;19.40;11.75;;;;;;;4.22;49.63;102167.16;5113665;28;20042;-91
2022/03/10 00:14:37;;;;;;;18.67;11.90;;;;;;;4.12;50.37;102158.22;5115014;28;20023;-91
2022/03/10 00:17:05;;;;;;;18.65;11.55;;;;;;;4.14;50.65;102158.97;5097372;28;20498;-90
2022/03/10 00:19:50;;;;;;;;;;;;;;;;;;;;;
2022/03/10 00:22:31;;;;;;;;;;;;;;;;;;;;;
2022/03/10 00:25:19;;;;;;;18.70;11.60;;;;;;;3.97;51.39;102160.47;5115590;28;20083;-91
2022/03/10 00:27:48;;;;;;;19.92;11.75;;;;;;;3.91;51.12;102153.84;5114371;28;20104;-91
2022/03/10 00:30:23;;;;;;;17.75;11.18;;;;;;;3.94;51.53;102168.81;5113513;28;20040;-92
2022/03/10 00:32:57;;;;;;;18.45;11.68;;;;;;;3.89;51.33;102166.56;5114434;28;20074;-91
2022/03/10 00:35:26;;;;;;;18.30;11.60;;;;;;;3.76;51.94;102156.06;5114508;28;20028;-90
2022/03/10 00:37:55;;;;;;;17.88;11.40;;;;;;;3.78;52.04;102167.53;5114357;28;20019;-91
2022/03/10 00:40:24;;;;;;;18.35;11.68;;;;;;;3.76;52.04;102168.66;5121769;28;20028;-91
2022/03/10 00:42:54;;;;;;;17.60;11.68;;;;;;;3.65;52.85;102156.22;5122646;28;20032;-91
2022/03/10 00:45:30;;;;;;;;;;;;;;;;;;;;;
2022/03/10 00:48:04;;;;;;;18.35;11.32;;;;;;;3.59;52.12;102154.06;5120426;28;20032;-91
2022/03/10 00:50:41;;;;;;;19.30;12.70;;;;;;;3.57;53.08;102159.56;5118401;28;20027;-92
2022/03/10 00:53:07;;;;;;;20.58;12.27;;;;;;;3.60;52.75;102172.72;5119398;28;20056;-91
2022/03/10 00:55:35;;;;;;;21.10;12.70;;;;;;;3.58;52.43;102166.63;5117913;28;20479;-92
2022/03/10 00:58:02;;;;;;;18.95;12.88;;;;;;;3.54;54.29;102173.25;5101302;28;20028;-91
2022/03/10 01:00:33;;;;;;;21.13;13.68;;;;;;;3.50;53.80;102164.63;5127233;28;20084;-90
2022/03/10 01:02:59;;;;;;;18.52;12.10;;;;;;;3.57;54.55;102189.09;5129273;28;20035;-91
2022/03/10 01:05:27;;;;;;;20.38;12.73;;;;;;;3.46;53.79;102163.22;5128207;28;20567;-91
2022/03/10 01:08:02;;;;;;;19.55;12.27;;;;;;;3.47;53.69;102169.41;5120342;28;20165;-92
2022/03/10 01:10:36;;;;;;;19.98;12.60;;;;;;;3.38;53.86;102168.44;5101351;28;20096;-91
2022/03/10 01:13:12;;;;;;;19.50;11.98;;;;;;;3.39;52.77;102167.41;5118813;28;20051;-91
2022/03/10 01:15:47;;;;;;;;;;;;;;;;;;;;;
2022/03/10 01:18:14;;;;;;;20.10;12.60;;;;;;;3.35;54.76;102176.72;5119272;28;20032;-91
2022/03/10 01:20:40;;;;;;;19.40;12.70;;;;;;;3.27;55.70;102172.03;5117749;28;20034;-91
2022/03/10 01:23:08;;;;;;;19.98;12.82;;;;;;;3.23;55.17;102173.28;5117115;28;20051;-91
2022/03/10 01:28:27;;;;;;;20.90;13.00;;;;;;;3.13;54.59;102157.16;5118878;28;20445;-92
2022/03/10 01:30:56;;;;;;;20.25;12.63;;;;;;;3.09;55.23;102157.56;5117318;28;20051;-92
2022/03/10 01:33:24;;;;;;;21.90;13.82;;;;;;;3.20;55.42;102181.59;5116987;28;20070;-92
2022/03/10 01:35:53;;;;;;;21.92;13.70;;;;;;;3.09;55.21;102158.41;5118266;28;20027;-91
2022/03/10 01:38:20;;;;;;;20.73;14.00;;;;;;;3.08;56.02;102162.06;5116582;28;20122;-91
2022/03/10 01:40:46;;;;;;;21.13;14.27;;;;;;;3.14;56.11;102168.72;5116892;28;20031;-91
2022/03/10 01:43:11;;;;;;;21.63;14.05;;;;;;;3.12;56.46;102174.22;5117001;28;20032;-91
2022/03/10 01:45:39;;;;;;;21.13;13.20;;;;;;;3.07;55.28;102164.88;5117125;28;20067;-91
2022/03/10 01:48:05;;;;;;;22.35;13.30;;;;;;;3.04;55.80;102160.66;5116555;28;20035;-91
2022/03/10 01:50:38;;;;;;;25.15;14.82;;;;;;;3.11;54.81;102175.19;5116726;28;20059;-92
2022/03/10 01:53:06;;;;;;;20.83;13.80;;;;;;;3.04;55.88;102165.16;5099774;28;20061;-91
2022/03/10 01:55:31;;;;;;;19.88;13.27;;;;;;;2.97;56.64;102154.13;5116661;28;20065;-92
2022/03/10 01:58:01;;;;;;;21.67;13.65;;;;;;;2.97;57.50;102162.16;5116337;28;20027;-92
2022/03/10 02:00:32;;;;;;;21.00;12.80;;;;;;;2.98;57.54;102158.47;5116012;28;20074;-92
2022/03/10 02:02:58;;;;;;;20.33;12.57;;;;;;;2.95;56.43;102161.44;5116299;28;20067;-91
2022/03/10 02:05:32;;;;;;;19.98;12.38;;;;;;;2.88;56.64;102157.56;5116694;28;20039;-92
2022/03/10 02:10:45;;;;;;;20.42;13.57;;;;;;;2.79;56.95;102149.38;5117808;28;20043;-91
2022/03/10 02:13:13;;;;;;;20.30;13.45;;;;;;;2.77;57.38;102158.50;5082445;28;20038;-91
2022/03/10 02:18:24;;;;;;;20.40;13.90;;;;;;;2.73;57.94;102160.63;5117351;28;20498;-92
2022/03/10 02:20:52;;;;;;;22.30;13.98;;;;;;;2.63;57.46;102147.16;5115618;28;20532;-92
2022/03/10 02:23:22;;;;;;;20.35;12.65;;;;;;;2.59;58.57;102148.38;5097970;28;20104;-91
2022/03/10 02:25:50;;;;;;;20.38;12.75;;;;;;;2.61;57.82;102161.66;5116390;28;20111;-91
2022/03/10 02:28:17;;;;;;;21.65;13.48;;;;;;;2.51;58.03;102150.00;5115858;28;20463;-91
2022/03/10 02:30:45;;;;;;;19.70;12.50;;;;;;;2.48;58.16;102158.31;5115617;28;20172;-92
2022/03/10 02:33:17;;;;;;;22.27;13.63;;;;;;;2.50;58.11;102167.94;5116165;28;20043;-91
2022/03/10 02:35:45;;;;;;;21.08;13.02;;;;;;;2.38;58.81;102156.44;5115862;28;20023;-91
2022/03/10 02:38:19;;;;;;;18.45;12.27;;;;;;;2.37;58.32;102161.91;5115713;28;20039;-91
2022/03/10 02:40:53;;;;;;;18.85;12.50;;;;;;;2.30;57.44;102150.00;5099505;28;20043;-91
2022/03/10 02:43:22;;;;;;;20.90;13.20;;;;;;;2.24;59.05;102149.56;5115917;28;20035;-91
2022/03/10 02:45:58;;;;;;;19.83;12.65;;;;;;;2.21;59.04;102149.78;5098421;28;20126;-91
2022/03/10 02:48:26;;;;;;;19.17;12.55;;;;;;;2.21;59.42;102147.13;5116742;28;20034;-91
2022/03/10 02:50:54;;;;;;;21.17;12.90;;;;;;;2.27;59.67;102164.50;5115327;28;20040;-91
2022/03/10 02:53:22;;;;;;;19.63;12.98;;;;;;;2.25;59.30;102167.31;5117114;28;20032;-92
2022/03/10 02:55:55;;;;;;;19.05;12.48;;;;;;;2.24;58.52;102162.94;5115815;28;20027;-92
2022/03/10 02:58:21;;;;;;;20.55;12.15;;;;;;;2.21;60.75;102157.81;5115632;28;20024;-92
2022/03/10 03:00:48;;;;;;;23.98;13.27;;;;;;;2.19;60.13;102146.41;5115547;28;20103;-92
2022/03/10 03:03:19;;;;;;;21.80;13.43;;;;;;;2.23;57.85;102152.34;5117877;28;20024;-92
2022/03/10 03:05:45;;;;;;;19.48;11.85;;;;;;;2.23;60.61;102155.03;5110385;28;20103;-92
2022/03/10 03:08:19;;;;;;;20.95;12.90;;;;;;;2.16;60.70;102143.97;5127955;28;20027;-93
2022/03/10 03:10:47;;;;;;;20.05;13.57;;;;;;;2.17;61.16;102147.50;5126836;28;20024;-92
2022/03/10 03:13:20;;;;;;;19.05;12.15;;;;;;;2.22;60.61;102154.19;5109148;28;20085;-92
2022/03/10 03:15:47;;;;;;;20.83;13.30;;;;;;;2.17;60.85;102143.03;5121832;28;20464;-92
2022/03/10 03:18:18;;;;;;;21.50;13.98;;;;;;;2.19;61.69;102153.59;5118141;28;20088;-92
2022/03/10 03:20:44;;;;;;;20.45;12.75;;;;;;;2.15;61.40;102154.81;5099444;28;20032;-92
2022/03/10 03:23:28;;;;;;;18.52;11.80;;;;;;;2.20;60.49;102174.03;5115225;28;20030;-92
2022/03/10 03:25:58;;;;;;;20.02;12.55;;;;;;;2.18;61.40;102171.47;5117813;28;20049;-92
2022/03/10 03:28:24;;;;;;;20.40;12.93;;;;;;;2.06;62.42;102148.41;5117183;28;20027;-93
2022/03/10 03:30:52;;;;;;;21.23;12.80;;;;;;;2.06;60.48;102161.78;5117335;28;20069;-92
2022/03/10 03:33:18;;;;;;;19.55;12.68;;;;;;;2.04;61.25;102172.63;5105373;28;20096;-92
2022/03/10 03:35:48;;;;;;;19.55;12.43;;;;;;;2.02;60.88;102179.09;5129221;28;20023;-92
2022/03/10 03:38:23;;;;;;;19.45;12.70;;;;;;;1.90;61.79;102176.44;5111972;28;20036;-92
2022/03/10 03:41:16;;;;;;;20.25;13.02;;;;;;;1.97;60.99;102187.50;5126940;28;20038;-92
2022/03/10 03:44:09;;;;;;;;;;;;;;;1.95;56.05;102177.88;5101861;28;20079;-92
2022/03/10 03:46:55;;;;;;;21.08;13.82;;;;;;;1.85;62.39;102164.44;5120048;28;19908;-92
2022/03/10 03:49:25;;;;;;;19.65;12.60;;;;;;;1.93;62.76;102175.34;5124327;28;20100;-92
2022/03/10 03:51:54;;;;;;;21.30;12.57;;;;;;;1.93;63.38;102181.56;5116285;28;20050;-91
2022/03/10 03:54:29;;;;;;;21.02;12.95;;;;;;;1.86;62.00;102177.69;5097435;28;20028;-91
2022/03/10 03:56:57;;;;;;;20.73;12.55;;;;;;;1.89;61.63;102196.16;5114656;28;20019;-92
2022/03/10 03:59:25;;;;;;;20.58;12.45;;;;;;;1.78;61.97;102179.28;5114068;28;20111;-91
2022/03/10 04:01:58;;;;;;;19.75;12.25;;;;;;;1.85;61.87;102204.56;5115023;28;20459;-91
2022/03/10 04:04:28;;;;;;;20.55;11.90;;;;;;;1.70;62.58;102183.44;5098634;28;20077;-92
2022/03/10 04:06:57;;;;;;;18.45;11.82;;;;;;;1.68;62.93;102188.06;5114075;28;20063;-91
2022/03/10 04:09:23;;;;;;;18.52;11.70;;;;;;;1.69;62.32;102192.41;5113913;28;20059;-91
2022/03/10 04:11:53;;;;;;;19.65;11.65;;;;;;;1.62;62.77;102193.03;5114178;28;20035;-92
2022/03/10 04:14:24;;;;;;;19.23;12.25;;;;;;;1.69;63.57;102212.97;5080935;28;20066;-92
2022/03/10 04:16:52;;;;;;;19.77;12.13;;;;;;;1.55;63.32;102190.00;5097772;28;20024;-92
2022/03/10 04:19:20;;;;;;;18.65;11.68;;;;;;;1.58;64.44;102206.66;5117472;28;20024;-92
2022/03/10 04:22:03;;;;;;;17.33;10.80;;;;;;;1.52;65.03;102207.16;5101696;28;20491;-92
2022/03/10 04:24:29;;;;;;;18.75;11.85;;;;;;;1.44;65.39;102192.69;5120024;28;20043;-92
2022/03/10 04:27:04;;;;;;;20.33;12.52;;;;;;;1.43;65.48;102197.19;5118936;27;20700;-92
2022/03/10 04:29:50;;;;;;;;;;;;;;;;;;;;;
2022/03/10 04:32:21;;;;;;;19.80;12.38;;;;;;;1.42;64.89;102210.69;5120052;28;20024;-92
2022/03/10 04:34:47;;;;;;;18.83;12.00;;;;;;;1.39;65.50;102209.97;5118380;28;20031;-92
2022/03/10 04:37:16;;;;;;;19.95;12.20;;;;;;;1.28;65.24;102199.25;5100850;28;20085;-91
2022/03/10 04:39:49;;;;;;;20.27;11.75;;;;;;;1.25;65.13;102194.16;5118585;28;20032;-91
2022/03/10 04:42:14;;;;;;;19.73;12.38;;;;;;;1.23;64.77;102204.13;5118632;28;20066;-91
2022/03/10 04:44:43;;;;;;;20.08;12.65;;;;;;;1.15;63.77;102194.03;5118097;28;20040;-91
2022/03/10 04:47:08;;;;;;;20.92;12.75;;;;;;;1.24;65.23;102208.50;5117598;28;20051;-91
2022/03/10 04:49:36;;;;;;;20.08;12.43;;;;;;;1.20;65.84;102205.22;5117915;28;20062;-91
2022/03/10 04:52:06;;;;;;;19.30;12.73;;;;;;;1.10;66.31;102190.84;5117476;28;20047;-91
2022/03/10 04:54:34;;;;;;;20.20;12.90;;;;;;;1.14;66.75;102204.84;5117901;28;20059;-91
2022/03/10 04:57:03;;;;;;;19.23;12.55;;;;;;;1.04;66.28;102192.19;5117987;28;20151;-91
2022/03/10 04:59:41;;;;;;;;;;;;;;;;;;;;;
2022/03/10 05:02:09;;;;;;;18.85;11.93;;;;;;;1.01;66.74;102191.59;5120053;28;20030;-91
2022/03/10 05:04:40;;;;;;;19.33;12.40;;;;;;;1.00;66.10;102188.03;5122084;28;20107;-91
2022/03/10 05:07:08;;;;;;;20.75;12.43;;;;;;;1.00;65.96;102193.38;5113022;28;20062;-91
2022/03/10 05:09:44;;;;;;;19.42;12.38;;;;;;;1.03;66.16;102205.66;5131878;28;20035;-91
2022/03/10 05:12:15;;;;;;;19.25;12.68;;;;;;;1.03;65.86;102211.88;5133185;28;20072;-92
2022/03/10 05:14:46;;;;;;;18.35;11.57;;;;;;;0.92;65.97;102193.16;5128729;28;20047;-93
2022/03/10 05:17:24;;;;;;;;;;;;;;;;;;;;;
2022/03/10 05:19:55;;;;;;;20.20;12.25;;;;;;;0.97;67.06;102219.53;5135265;28;20064;-91
2022/03/10 05:22:47;;;;;;;17.27;10.82;;;;;;;0.99;64.82;102230.94;5132697;28;20073;-92
2022/03/10 05:25:14;;;;;;;18.63;11.98;;;;;;;0.90;68.20;102223.63;5124642;28;20016;-92
2022/03/10 05:27:39;;;;;;;17.92;11.18;;;;;;;0.81;67.27;102210.03;5121525;28;20024;-92
2022/03/10 05:30:11;;;;;;;19.65;12.02;;;;;;;0.83;67.92;102216.09;5126975;28;20044;-92
2022/03/10 05:32:42;;;;;;;17.10;11.00;;;;;;;0.81;67.25;102212.69;5111124;28;20039;-92
2022/03/10 05:35:14;;;;;;;20.17;12.45;;;;;;;0.75;67.42;102199.78;5125315;28;20031;-91
2022/03/10 05:37:48;;;;;;;18.98;12.13;;;;;;;0.80;67.20;102215.50;5117855;28;20459;-91
2022/03/10 05:40:18;;;;;;;19.92;12.10;;;;;;;0.78;66.18;102207.56;5117962;28;20368;-91
2022/03/10 05:42:51;;;;;;;19.65;12.52;;;;;;;0.74;66.14;102203.44;5117716;28;20076;-91
2022/03/10 05:45:25;;;;;;;20.17;12.65;;;;;;;0.77;64.26;102207.69;5117350;28;20060;-91
2022/03/10 05:47:55;;;;;;;20.20;12.90;;;;;;;0.77;63.69;102210.34;5116780;28;20027;-91
2022/03/10 05:50:27;;;;;;;20.70;12.55;;;;;;;0.77;65.74;102200.53;5117059;28;20114;-91
2022/03/10 05:53:00;;;;;;;22.08;13.90;;;;;;;0.81;65.57;102206.47;5116735;28;20433;-91
2022/03/10 05:55:26;;;;;;;21.88;13.63;;;;;;;0.83;65.66;102209.91;5100705;28;20051;-91
2022/03/10 05:57:52;;;;;;;21.45;12.90;;;;;;;0.84;65.95;102207.13;5116725;28;20032;-91
2022/03/10 06:00:21;;;;;;;21.20;13.52;;;;;;;0.87;65.48;102208.69;5117714;28;20483;-91
2022/03/10 06:02:47;;;;;;;20.15;13.23;;;;;;;0.82;65.33;102201.03;5116447;28;20131;-91
2022/03/10 06:05:16;;;;;;;20.90;13.48;;;;;;;0.85;66.68;102206.13;5117439;28;20050;-91
2022/03/10 06:07:47;;;;;;;21.65;13.43;;;;;;;0.85;66.27;102200.78;5116933;28;20020;-91
2022/03/10 06:10:13;;;;;;;23.30;13.75;;;;;;;0.99;65.28;102210.41;5101528;28;20531;-91
2022/03/10 06:12:46;;;;;;;22.60;13.43;;;;;;;0.99;65.47;102212.22;5118006;28;20028;-91
2022/03/10 06:15:14;;;;;;;20.95;13.18;;;;;;;0.97;63.52;102201.66;5118703;28;20028;-91
2022/03/10 06:17:40;;;;;;;21.00;13.48;;;;;;;1.06;65.21;102210.78;5118556;28;20024;-92
2022/03/10 06:20:09;;;;;;;20.83;13.77;;;;;;;1.10;65.15;102212.25;5119634;28;20035;-90
2022/03/10 06:22:38;;;;;;;21.80;13.13;;;;;;;1.08;63.43;102202.63;5118621;28;20035;-93
2022/03/10 06:25:05;;;;;;;21.77;13.20;;;;;;;1.17;64.32;102216.16;5118330;28;20090;-93
2022/03/10 06:27:34;;;;;;;19.20;11.60;;;;;;;1.18;64.72;102212.50;5117318;28;20027;-91
2022/03/10 06:30:08;;;;;;;17.92;11.60;;;;;;;1.20;64.12;102207.88;5100849;28;20114;-95
2022/03/10 06:32:36;;;;;;;19.88;12.32;;;;;;;1.29;64.37;102213.50;5119221;28;20038;-94
2022/03/10 06:35:11;;;;;;;18.30;11.80;;;;;;;1.42;62.85;102229.41;5116797;28;20019;-95
2022/03/10 06:37:36;;;;;;;19.13;12.52;;;;;;;1.40;63.59;102217.03;5116956;28;20172;-96
2022/03/10 06:40:05;;;;;;;20.10;12.30;;;;;;;1.45;63.49;102207.75;5116482;28;20063;-92
2022/03/10 06:42:31;;;;;;;19.95;13.05;;;;;;;1.57;62.31;102220.16;5099189;28;20482;-93
2022/03/10 06:44:59;;;;;;;20.63;12.77;;;;;;;1.54;63.39;102209.72;5115233;28;20040;-94
2022/03/10 06:47:25;;;;;;;20.83;13.00;;;;;;;1.58;62.62;102206.66;5116310;28;20028;-93
2022/03/10 06:49:50;;;;;;;22.48;13.23;;;;;;;1.65;62.97;102211.53;5116240;28;20061;-92
2022/03/10 06:52:20;;;;;;;20.17;12.57;;;;;;;1.73;61.07;102220.63;5117573;28;20080;-93
2022/03/10 06:54:46;;;;;;;21.33;11.88;;;;;;;1.82;63.07;102231.59;5116091;28;20047;-95
2022/03/10 06:57:12;;;;;;;18.65;11.43;;;;;;;1.87;62.99;102238.25;5115356;28;20023;-95
2022/03/10 06:59:41;;;;;;;19.98;12.93;;;;;;;1.85;62.62;102220.63;5115937;28;20027;-94
2022/03/10 07:02:07;;;;;;;19.48;12.30;;;;;;;1.97;63.18;102230.31;5115584;28;20414;-93
2022/03/10 07:04:38;;;;;;;20.48;12.55;;;;;;;1.99;62.87;102222.16;5116517;28;20058;-93
2022/03/10 07:07:04;;;;;;;18.35;11.48;;;;;;;2.01;62.81;102218.41;5099475;28;20036;-92
2022/03/10 07:09:33;;;;;;;18.77;11.63;;;;;;;2.08;62.40;102224.97;5118515;28;20035;-92
2022/03/10 07:12:00;;;;;;;20.77;12.38;;;;;;;2.23;62.59;102235.38;5115977;28;20023;-92
2022/03/10 07:14:28;;;;;;;20.38;12.25;;;;;;;2.29;61.99;102229.53;5115893;28;20051;-93
2022/03/10 07:16:57;;;;;;;20.42;12.45;;;;;;;2.40;61.97;102236.66;5116043;28;20059;-93
2022/03/10 07:19:23;;;;;;;20.17;12.30;;;;;;;2.42;61.65;102229.34;5115863;28;20124;-94
2022/03/10 07:21:51;;;;;;;18.63;12.18;;;;;;;2.58;62.50;102237.81;5115740;28;20467;-93
2022/03/10 07:24:19;;;;;;;20.42;11.75;;;;;;;2.60;61.45;102233.16;5116713;28;20073;-93
2022/03/10 07:26:47;;;;;;;19.83;12.35;;;;;;;2.68;61.10;102226.31;5115444;28;20077;-93
2022/03/10 07:29:16;;;;;;;19.83;11.77;;;;;;;2.76;61.39;102235.41;5116605;28;20066;-94
2022/03/10 07:31:47;;;;;;;20.17;11.75;;;;;;;2.89;61.56;102242.41;5116749;28;20043;-93
2022/03/10 07:34:13;;;;;;;20.42;11.93;;;;;;;2.91;61.39;102224.34;5115210;28;20074;-93
2022/03/10 07:36:40;;;;;;;20.52;12.80;;;;;;;3.06;61.05;102238.28;5116071;28;20055;-94
2022/03/10 07:39:09;;;;;;;20.27;12.27;;;;;;;3.19;60.40;102240.75;5115134;28;20039;-94
2022/03/10 07:41:34;;;;;;;19.65;11.93;;;;;;;3.19;60.27;102230.88;5114535;28;20114;-94
2022/03/10 07:44:00;;;;;;;20.48;12.80;;;;;;;3.28;59.77;102232.75;5114941;28;20055;-94
2022/03/10 07:46:26;;;;;;;21.50;13.00;;;;;;;3.42;58.37;102228.03;5115508;28;20042;-94
2022/03/10 07:48:54;;;;;;;20.33;12.57;;;;;;;3.50;59.52;102228.22;5115274;28;20078;-93
2022/03/10 07:51:58;;;;;;;20.33;12.57;;;;;;;3.72;58.32;102242.41;5117614;28;20059;-93
2022/03/10 07:54:47;;;;;;;23.75;14.48;;;;;;;3.84;58.23;102244.00;5091591;28;20047;-94
2022/03/10 07:57:15;;;;;;;22.95;13.77;;;;;;;3.92;57.41;102233.41;5124149;28;20110;-94
2022/03/10 07:59:41;;;;;;;21.13;12.45;;;;;;;4.01;57.54;102229.06;5124257;28;20063;-92
2022/03/10 08:02:10;;;;;;;19.88;12.85;;;;;;;4.06;57.64;102223.25;5123500;28;20108;-95
2022/03/10 08:04:35;;;;;;;21.33;13.15;;;;;;;4.21;57.04;102235.31;5117331;28;20084;-94
2022/03/10 08:07:01;;;;;;;23.27;14.45;;;;;;;4.34;56.79;102235.03;5114873;28;20024;-94
2022/03/10 08:09:34;;;;;;;22.45;13.55;;;;;;;4.37;56.65;102222.19;5115428;28;20463;-95
2022/03/10 08:12:03;;;;;;;21.15;12.40;;;;;;;4.51;56.82;102230.81;5098882;28;20394;-95
2022/03/10 08:15:12;;;;;;;21.50;13.20;;;;;;;4.57;56.13;102222.16;5115023;28;20032;-95
2022/03/10 08:18:18;;;;;;;25.63;14.30;;;;;;;4.71;55.69;102226.25;5115515;28;20046;-95
2022/03/10 08:20:56;;;;;;;24.90;13.88;;;;;;;4.86;54.80;102224.84;5113673;28;20448;-94
2022/03/10 08:23:28;;;;;;;24.75;15.40;;;;;;;5.06;53.85;102227.47;5114652;28;20035;-95
2022/03/10 08:26:20;;;;;;;;;;;;;;;;;;;;;
2022/03/10 08:29:04;;;;;;;;;;;;;;;;;;;;;
2022/03/10 08:31:35;;;;;;;24.17;15.38;;;;;;;5.39;53.24;102238.75;5114514;28;19928;-95
2022/03/10 08:34:17;;;;;;;21.02;13.07;;;;;;;5.49;52.74;102225.22;5114809;28;20059;-95
2022/03/10 08:36:45;;;;;;;25.52;15.38;;;;;;;5.61;52.57;102218.66;5115282;28;20034;-95
2022/03/10 08:39:15;;;;;;;23.88;15.00;;;;;;;5.80;52.13;102231.16;5114028;28;20027;-94
2022/03/10 08:41:41;;;;;;;25.15;15.35;;;;;;;5.86;51.71;102224.34;5098058;28;20032;-95
2022/03/10 08:44:06;;;;;;;23.30;14.70;;;;;;;5.96;51.25;102211.66;5114348;28;20024;-94
2022/03/10 08:46:44;;;;;;;25.60;15.15;;;;;;;6.12;51.15;102219.09;5114562;28;20066;-95
2022/03/10 08:49:27;;;;;;;23.92;14.52;;;;;;;6.22;51.15;102217.19;5114683;28;20177;-94
2022/03/10 08:51:55;;;;;;;25.63;15.52;;;;;;;6.26;50.86;102201.53;5113867;28;20031;-95
2022/03/10 08:54:23;;;;;;;23.85;14.43;;;;;;;6.41;50.72;102215.34;5096964;28;20032;-95
2022/03/10 08:56:50;;;;;;;22.27;13.50;;;;;;;6.42;50.20;102215.22;5114708;28;20027;-95
2022/03/10 08:59:28;;;;;;;;;;;;;;;;;;;;;
2022/03/10 09:01:57;;;;;;;23.27;14.68;;;;;;;6.65;49.95;102214.72;5116231;28;20038;-95
2022/03/10 09:04:46;;;;;;;23.33;15.27;;;;;;;6.79;49.44;102207.91;5117338;28;20024;-93
2022/03/10 09:07:23;;;;;;;25.33;15.23;;;;;;;6.95;49.54;102207.19;5119194;28;20130;-94
2022/03/10 09:09:51;;;;;;;23.70;14.77;;;;;;;7.01;48.96;102206.53;5121454;28;20031;-94
2022/03/10 09:12:17;;;;;;;24.13;15.43;;;;;;;7.12;48.94;102205.44;5122781;28;20023;-94
2022/03/10 09:14:46;;;;;;;23.13;14.43;;;;;;;7.25;48.44;102202.28;5119768;28;20043;-94
2022/03/10 09:17:16;;;;;;;23.00;15.18;;;;;;;7.40;48.33;102194.44;5118025;28;20020;-94
2022/03/10 09:19:49;;;;;;;22.95;14.15;;;;;;;7.54;48.30;102181.19;5118200;28;20028;-94
2022/03/10 09:22:17;;;;;;;22.02;13.15;;;;;;;7.66;47.70;102180.88;5117999;28;20119;-94
2022/03/10 09:24:46;;;;;;;21.30;13.52;;;;;;;7.84;47.74;102199.69;5117939;28;20049;-94
2022/03/10 09:27:12;;;;;;;22.15;13.85;;;;;;;7.86;47.35;102195.81;5117714;28;20375;-95
2022/03/10 09:29:47;;;;;;;21.80;13.68;;;;;;;8.05;47.32;102200.09;5117243;28;20114;-95
2022/03/10 09:32:13;;;;;;;20.92;13.60;;;;;;;8.13;47.24;102187.59;5100933;28;20044;-95
2022/03/10 09:34:46;;;;;;;20.42;12.65;;;;;;;8.23;46.93;102183.72;5119106;28;20050;-94
2022/03/10 09:37:12;;;;;;;22.02;14.30;;;;;;;8.28;47.05;102174.28;5117281;28;20097;-95
2022/03/10 09:39:38;;;;;;;21.77;13.27;;;;;;;8.42;46.50;102174.44;5118163;28;20186;-95
2022/03/10 09:42:05;;;;;;;22.77;13.35;;;;;;;8.48;46.24;102162.13;5117363;28;20094;-95
2022/03/10 09:44:35;;;;;;;21.10;12.68;;;;;;;8.60;46.92;102165.34;5118133;28;20035;-95
2022/03/10 09:47:04;;;;;;;19.30;12.68;;;;;;;8.67;46.77;102162.81;5117464;28;20089;-94
2022/03/10 09:49:39;;;;;;;20.45;13.20;;;;;;;8.75;46.88;102171.78;5100219;28;20069;-94
2022/03/10 09:52:08;;;;;;;19.33;12.65;;;;;;;8.84;46.40;102161.75;5118233;28;20065;-94
2022/03/10 09:54:37;;;;;;;21.17;13.20;;;;;;;8.98;46.15;102157.53;5116800;28;20031;-95
2022/03/10 09:57:08;;;;;;;23.55;14.15;;;;;;;9.16;45.32;102167.28;5117895;28;20051;-94
2022/03/10 09:59:46;;;;;;;22.52;14.35;;;;;;;9.21;45.79;102157.63;5117723;28;20059;-94
2022/03/10 10:02:16;;;;;;;20.88;12.95;;;;;;;9.41;46.03;102159.94;5118320;28;20049;-94
2022/03/10 10:04:45;;;;;;;22.27;13.57;;;;;;;9.51;45.82;102156.97;5118409;28;20028;-93
2022/03/10 10:07:35;;;;;;;20.15;13.00;;;;;;;9.61;45.43;102161.19;5116391;28;20043;-94
2022/03/10 10:10:27;;;;;;;20.27;12.38;;;;;;;9.72;45.14;102151.81;5118228;28;20035;-93
2022/03/10 10:13:05;;;;;;;19.35;12.20;;;;;;;9.84;44.59;102142.25;5118547;28;20535;-94
2022/03/10 10:15:51;;;;;;;20.13;12.95;;;;;;;10.03;44.70;102139.25;5101949;28;20104;-94
2022/03/10 10:18:30;;;;;;;19.88;12.52;;;;;;;10.27;44.35;102149.91;5122901;28;20036;-95
2022/03/10 10:21:22;;;;;;;18.70;11.88;;;;;;;10.39;44.46;102144.09;5124348;28;20087;-93
2022/03/10 10:23:50;;;;;;;21.17;13.33;;;;;;;10.60;44.13;102144.25;5108206;28;20039;-94
2022/03/10 10:26:30;;;;;;;;;;;;;;;;;;;;;
2022/03/10 10:29:10;;;;;;;23.05;13.73;;;;;;;10.88;43.17;102136.34;5118437;28;20107;-93
2022/03/10 10:31:47;;;;;;;20.30;12.45;;;;;;;11.03;43.10;102130.91;5083225;28;20059;-94
2022/03/10 10:37:56;;;;;;;18.73;11.18;;;;;;;11.46;42.39;102135.66;5055008;28;20044;-94
2022/03/10 10:40:35;;;;;;;21.40;13.05;;;;;;;11.54;41.76;102134.69;5098625;28;20105;-94
2022/03/10 10:43:04;;;;;;;23.30;14.50;;;;;;;11.68;41.01;102133.84;5116384;28;20031;-94
2022/03/10 10:45:37;;;;;;;17.80;10.88;;;;;;;11.77;41.75;102116.38;5116608;28;20073;-93
2022/03/10 10:48:18;;;;;;;17.25;10.68;;;;;;;12.00;41.04;102117.25;5116555;28;20042;-94
2022/03/10 10:50:47;;;;;;;20.45;12.85;;;;;;;12.24;40.43;102135.09;5115393;28;20039;-94
2022/03/10 10:53:33;;;;;;;20.17;12.55;;;;;;;12.37;40.51;102120.72;5116152;28;20038;-93
2022/03/10 10:56:04;;;;;;;16.90;10.38;;;;;;;12.53;40.80;102108.72;5116053;28;20035;-94
2022/03/10 10:58:30;;;;;;;19.23;12.18;;;;;;;12.75;39.87;102115.78;5117528;28;20119;-94
2022/03/10 11:00:58;;;;;;;15.43;9.35;;;;;;;12.96;39.60;102114.03;5115230;28;20066;-94
2022/03/10 11:03:31;;;;;;;18.63;11.10;;;;;;;13.31;39.14;102114.84;5098663;28;20066;-94
2022/03/10 11:06:07;;;;;;;19.15;12.05;;;;;;;13.45;38.88;102101.31;5116825;28;20035;-93
2022/03/10 11:08:33;;;;;;;18.23;11.85;;;;;;;13.69;38.07;102092.56;5115702;28;20069;-94
2022/03/10 11:10:59;;;;;;;16.25;10.70;;;;;;;13.95;38.17;102090.13;5098758;28;20041;-93
2022/03/10 11:13:29;;;;;;;18.48;11.82;;;;;;;14.20;37.69;102084.88;5116991;28;20092;-94
2022/03/10 11:15:59;;;;;;;17.40;11.68;;;;;;;14.52;37.15;102099.56;5099458;28;20126;-93
2022/03/10 11:18:26;;;;;;;17.00;10.57;;;;;;;14.88;36.76;102092.00;5115613;28;20024;-93
2022/03/10 11:21:21;;;;;;;17.63;10.63;;;;;;;15.40;35.52;102095.59;5115410;28;20023;-93
2022/03/10 11:24:15;;;;;;;17.73;11.48;;;;;;;16.96;35.06;102097.84;5115531;28;20042;-93
2022/03/10 11:26:50;;;;;;;18.15;11.15;;;;;;;20.39;29.87;102099.75;5115470;28;20031;-94
2022/03/10 11:29:24;;;;;;;18.35;12.13;;;;;;;23.10;26.24;102074.38;5115924;28;20023;-93
2022/03/10 11:31:53;;;;;;;18.67;12.60;;;;;;;24.90;23.93;102079.22;5115990;28;20201;-93
2022/03/10 11:34:54;;;;;;;16.63;11.02;;;;;;;26.77;23.35;102081.28;5115959;28;20130;-93
2022/03/10 11:37:55;;;;;;;12.88;8.95;;;;;;;28.28;20.46;102078.84;5115690;28;20119;-94
2022/03/10 11:40:52;;;;;;;13.50;9.32;;;;;;;28.93;21.10;102063.13;5115139;28;20032;-93
2022/03/10 11:43:31;;;;;;;14.60;9.85;;;;;;;31.13;18.41;102059.53;5115672;28;20020;-96
2022/03/10 11:46:16;;;;;;;13.57;9.85;;;;;;;31.84;18.95;102066.00;5116268;28;20027;-96
2022/03/10 11:49:03;;;;;;;13.70;10.73;;;;;;;32.56;17.66;102043.88;5119445;28;20028;-94
2022/03/10 11:51:52;;;;;;;11.88;9.25;;;;;;;33.43;15.55;102041.72;5121200;28;20023;-95
2022/03/10 11:54:24;;;;;;;14.75;10.77;;;;;;;33.60;14.41;102037.91;5118734;28;20032;-95
2022/03/10 11:56:50;;;;;;;10.38;8.45;;;;;;;35.07;14.30;102030.91;5117708;28;20038;-95
2022/03/10 11:59:31;;;;;;;10.90;8.70;;;;;;;35.85;14.06;102016.63;5117581;28;20027;-95
2022/03/10 12:02:01;;;;;;;11.68;9.65;;;;;;;36.69;11.79;102018.41;5132842;28;20017;-94
2022/03/10 12:04:41;;;;;;;11.75;9.70;;;;;;;36.61;12.21;102017.38;5134776;28;20048;-95
2022/03/10 12:07:14;;;;;;;12.32;9.57;;;;;;;36.53;12.59;102013.59;5134757;28;20007;-96